createdAt,value
2023-02-14T00:01:44.066Z,103700.44
2023-02-14T00:04:10.698Z,103699.59
2023-02-14T00:06:39.256Z,103700.72
2023-02-14T00:09:07.598Z,103698.63
2023-02-14T00:11:34.168Z,103702.31
2023-02-14T00:14:19.119Z,103698.94
2023-02-14T00:16:46.198Z,103696.59
2023-02-14T00:19:15.301Z,103698.16
2023-02-14T00:21:42.219Z,103695.38
2023-02-14T00:24:11.928Z,103699.91
2023-02-14T00:26:38.894Z,103693.28
2023-02-14T00:29:13.513Z,103695.16
2023-02-14T00:31:41.611Z,103695.00
2023-02-14T00:34:09.041Z,103694.13
2023-02-14T00:36:36.791Z,103693.31
2023-02-14T00:39:09.285Z,103687.59
2023-02-14T00:41:36.218Z,103690.84
2023-02-14T00:44:02.975Z,103675.69
2023-02-14T00:46:29.670Z,103684.34
2023-02-14T00:48:56.779Z,103696.59
2023-02-14T00:51:23.937Z,103687.41
2023-02-14T00:53:51.467Z,103689.53
2023-02-14T00:56:20.285Z,103684.56
2023-02-14T00:58:47.369Z,103693.06
2023-02-14T01:01:15.625Z,103679.06
2023-02-14T01:03:42.570Z,103676.53
2023-02-14T01:06:09.672Z,103676.47
2023-02-14T01:08:36.200Z,103670.53
2023-02-14T01:11:18.205Z,103665.44
2023-02-14T01:13:45.784Z,103665.44
2023-02-14T01:16:16.019Z,103665.56
2023-02-14T01:18:44.092Z,103664.72
2023-02-14T01:21:15.166Z,103668.16
2023-02-14T01:23:42.775Z,103669.25
2023-02-14T01:26:10.719Z,103668.47
2023-02-14T01:28:37.823Z,103665.94
2023-02-14T01:31:17.116Z,103666.78
2023-02-14T01:33:47.099Z,103666.84
2023-02-14T01:36:19.077Z,103666.88
2023-02-14T01:38:45.985Z,103661.75
2023-02-14T01:41:13.278Z,103664.56
2023-02-14T01:43:55.954Z,103666.69
2023-02-14T01:46:23.424Z,103661.72
2023-02-14T01:48:51.076Z,103662.56
2023-02-14T01:51:20.145Z,103665.06
2023-02-14T01:53:47.785Z,103663.28
2023-02-14T01:56:21.168Z,103666.72
2023-02-14T01:58:52.803Z,103668.47
2023-02-14T02:01:20.067Z,103665.16
2023-02-14T02:03:55.989Z,103664.41
2023-02-14T02:06:35.662Z,103664.50
2023-02-14T02:09:15.119Z,103658.31
2023-02-14T02:11:42.848Z,103660.97
2023-02-14T02:14:16.008Z,103659.16
2023-02-14T02:16:47.820Z,103665.94
2023-02-14T02:19:36.549Z,103658.09
2023-02-14T02:22:46.857Z,103664.13
2023-02-14T02:25:59.180Z,103658.94
2023-02-14T02:28:51.710Z,103657.25
2023-02-14T02:31:52.425Z,103663.28
2023-02-14T02:34:56.233Z,103655.50
2023-02-14T02:37:31.580Z,103657.25
2023-02-14T02:40:13.167Z,103664.19
2023-02-14T02:43:02.674Z,103660.88
2023-02-14T02:45:56.952Z,103656.72
2023-02-14T02:48:32.189Z,103652.47
2023-02-14T02:51:20.669Z,103656.63
2023-02-14T02:54:02.919Z,103651.38
2023-02-14T02:56:46.948Z,103648.03
2023-02-14T02:59:22.081Z,103642.91
2023-02-14T03:01:54.885Z,103640.22
2023-02-14T03:04:44.905Z,103644.44
2023-02-14T03:07:30.935Z,103642.81
2023-02-14T03:10:00.890Z,103634.34
2023-02-14T03:12:33.317Z,103642.91
2023-02-14T03:15:11.027Z,103636.81
2023-02-14T03:17:43.684Z,103634.22
2023-02-14T03:20:45.567Z,103630.97
2023-02-14T03:23:22.495Z,103633.72
2023-02-14T03:25:54.939Z,103633.88
2023-02-14T03:28:47.223Z,103628.66
2023-02-14T03:31:16.624Z,103630.22
2023-02-14T03:34:03.715Z,103632.88
2023-02-14T03:36:33.668Z,103628.84
2023-02-14T03:39:10.850Z,103630.78
2023-02-14T03:41:51.674Z,103630.78
2023-02-14T03:44:22.248Z,103634.41
2023-02-14T03:47:01.455Z,103627.44
2023-02-14T03:49:35.003Z,103627.44
2023-02-14T03:52:03.965Z,103626.63
2023-02-14T03:54:32.961Z,103629.25
2023-02-14T03:57:24.943Z,103627.72
2023-02-14T03:59:53.324Z,103622.81
2023-02-14T04:02:37.961Z,103627.38
2023-02-14T04:05:11.963Z,103631.66
2023-02-14T04:07:48.977Z,103626.28
2023-02-14T04:10:16.858Z,103626.25
2023-02-14T04:12:43.654Z,103627.19
2023-02-14T04:15:10.737Z,103627.56
2023-02-14T04:18:03.613Z,103634.34
2023-02-14T04:20:30.508Z,103630.81
2023-02-14T04:22:57.658Z,103634.25
2023-02-14T04:25:24.551Z,103632.56
2023-02-14T04:27:52.061Z,103623.22
2023-02-14T04:30:20.826Z,103632.75
2023-02-14T04:32:47.503Z,103629.28
2023-02-14T04:35:14.650Z,103630.25
2023-02-14T04:37:42.873Z,103632.38
2023-02-14T04:40:10.146Z,103636.22
2023-02-14T04:42:36.862Z,103626.81
2023-02-14T04:45:05.526Z,103622.53
2023-02-14T04:47:32.443Z,103634.06
2023-02-14T04:49:59.108Z,103617.94
2023-02-14T04:52:27.422Z,103618.03
2023-02-14T04:57:34.706Z,103622.72
2023-02-14T05:00:01.459Z,103622.97
2023-02-14T05:02:32.258Z,103616.88
2023-02-14T05:04:59.621Z,103617.72
2023-02-14T05:07:26.239Z,103615.78
2023-02-14T05:09:52.766Z,103619.13
2023-02-14T05:12:19.560Z,103614.72
2023-02-14T05:17:27.613Z,103613.78
2023-02-14T05:19:54.482Z,103608.59
2023-02-14T05:22:21.404Z,103610.59
2023-02-14T05:24:48.002Z,103613.34
2023-02-14T05:27:14.662Z,103614.13
2023-02-14T05:29:44.100Z,103608.19
2023-02-14T05:32:11.618Z,103609.94
2023-02-14T05:34:38.433Z,103614.28
2023-02-14T05:37:05.089Z,103604.84
2023-02-14T05:39:32.593Z,103610.94
2023-02-14T05:41:59.585Z,103607.53
2023-02-14T05:44:26.323Z,103604.19
2023-02-14T05:46:53.157Z,103605.16
2023-02-14T05:49:20.127Z,103600.84
2023-02-14T05:51:47.110Z,103608.69
2023-02-14T05:54:13.736Z,103606.41
2023-02-14T05:56:40.479Z,103602.19
2023-02-14T05:59:10.680Z,103604.91
2023-02-14T06:01:37.421Z,103610.03
2023-02-14T06:04:04.190Z,103602.19
2023-02-14T06:06:31.584Z,103605.66
2023-02-14T06:09:02.268Z,103597.16
2023-02-14T06:11:29.583Z,103611.16
2023-02-14T06:13:57.078Z,103606.00
2023-02-14T06:16:23.834Z,103602.66
2023-02-14T06:18:50.417Z,103604.41
2023-02-14T06:21:17.257Z,103605.31
2023-02-14T06:23:45.505Z,103616.44
2023-02-14T06:26:13.785Z,103615.34
2023-02-14T06:28:40.284Z,103617.78
2023-02-14T06:31:07.023Z,103623.78
2023-02-14T06:33:33.790Z,103627.22
2023-02-14T06:36:00.431Z,103614.19
2023-02-14T06:38:29.085Z,103616.63
2023-02-14T06:40:55.570Z,103615.94
2023-02-14T06:43:22.333Z,103615.84
2023-02-14T06:45:48.809Z,103609.75
2023-02-14T06:48:15.662Z,103616.63
2023-02-14T06:50:43.151Z,103619.22
2023-02-14T06:53:09.812Z,103611.59
2023-02-14T06:55:36.503Z,103623.78
2023-02-14T06:58:03.317Z,103620.31
2023-02-14T07:00:30.094Z,103623.81
2023-02-14T07:02:57.784Z,103611.59
2023-02-14T07:05:24.575Z,103616.84
2023-02-14T07:07:52.866Z,103622.13
2023-02-14T07:10:19.973Z,103614.34
2023-02-14T07:12:46.790Z,103615.25
2023-02-14T07:15:13.582Z,103619.38
2023-02-14T07:17:48.225Z,103614.94
2023-02-14T07:20:15.775Z,103614.13
2023-02-14T07:22:42.748Z,103620.22
2023-02-14T07:25:13.158Z,103622.88
2023-02-14T07:27:40.169Z,103622.91
2023-02-14T07:30:08.585Z,103618.78
2023-02-14T07:32:38.413Z,103618.88
2023-02-14T07:35:05.657Z,103620.69
2023-02-14T07:37:33.705Z,103621.59
2023-02-14T07:40:00.267Z,103622.34
2023-02-14T07:42:27.153Z,103621.38
2023-02-14T07:44:53.792Z,103624.66
2023-02-14T07:47:20.400Z,103620.97
2023-02-14T07:49:46.955Z,103624.97
2023-02-14T07:52:13.442Z,103627.38
2023-02-14T07:54:41.309Z,103631.47
2023-02-14T07:57:08.093Z,103631.25
2023-02-14T07:59:36.213Z,103632.75
2023-02-14T08:02:04.767Z,103623.84
2023-02-14T08:04:33.752Z,103622.88
2023-02-14T08:07:00.798Z,103619.25
2023-02-14T08:09:27.545Z,103624.19
2023-02-14T08:12:15.611Z,103622.28
2023-02-14T08:14:43.486Z,103623.91
2023-02-14T08:17:11.679Z,103625.56
2023-02-14T08:19:38.425Z,103622.75
2023-02-14T08:22:05.497Z,103620.91
2023-02-14T08:24:32.496Z,103625.06
2023-02-14T08:26:59.860Z,103617.16
2023-02-14T08:29:26.486Z,103629.06
2023-02-14T08:31:53.762Z,103617.63
2023-02-14T08:34:22.240Z,103622.53
2023-02-14T08:36:48.946Z,103617.19
2023-02-14T08:39:15.538Z,103624.69
2023-02-14T08:41:42.049Z,103627.06
2023-02-14T08:44:08.890Z,103622.50
2023-02-14T08:46:36.056Z,103626.56
2023-02-14T08:49:02.835Z,103626.31
2023-02-14T08:51:29.614Z,103619.09
2023-02-14T08:53:56.485Z,103621.34
2023-02-14T08:56:24.427Z,103621.06
2023-02-14T08:58:55.267Z,103620.69
2023-02-14T09:01:22.412Z,103614.31
2023-02-14T09:03:49.137Z,103623.44
2023-02-14T09:06:17.542Z,103626.50
2023-02-14T09:08:44.998Z,103621.84
2023-02-14T09:11:18.898Z,103616.34
2023-02-14T09:13:47.441Z,103612.66
2023-02-14T09:16:19.280Z,103609.81
2023-02-14T09:18:47.418Z,103616.47
2023-02-14T09:21:17.283Z,103610.91
2023-02-14T09:23:44.405Z,103612.41
2023-02-14T09:26:13.705Z,103612.88
2023-02-14T09:28:42.040Z,103608.19
2023-02-14T09:31:14.644Z,103602.63
2023-02-14T09:33:46.282Z,103601.34
2023-02-14T09:36:18.838Z,103604.22
2023-02-14T09:38:47.694Z,103600.31
2023-02-14T09:41:31.070Z,103604.28
2023-02-14T09:44:44.646Z,103598.63
2023-02-14T09:47:35.634Z,103592.72
2023-02-14T09:50:07.148Z,103601.66
2023-02-14T09:52:37.829Z,103596.72
2023-02-14T09:55:14.920Z,103594.66
2023-02-14T09:57:56.935Z,103599.91
2023-02-14T10:00:31.291Z,103593.41
2023-02-14T10:03:29.273Z,103590.41
2023-02-14T10:06:12.291Z,103588.13
2023-02-14T10:08:44.215Z,103588.66
2023-02-14T10:11:20.750Z,103587.19
2023-02-14T10:13:54.559Z,103586.13
2023-02-14T10:16:28.910Z,103585.59
2023-02-14T10:19:05.235Z,103586.81
2023-02-14T10:21:43.113Z,103589.63
2023-02-14T10:24:21.668Z,103587.63
2023-02-14T10:26:54.775Z,103584.44
2023-02-14T10:29:22.667Z,103582.94
2023-02-14T10:32:04.481Z,103582.94
2023-02-14T10:34:46.024Z,103577.84
2023-02-14T10:37:17.747Z,103571.88
2023-02-14T10:40:00.573Z,103570.59
2023-02-14T10:43:12.923Z,103573.69
2023-02-14T10:45:52.894Z,103575.50
2023-02-14T10:48:42.788Z,103571.84
2023-02-14T10:51:25.766Z,103575.03
2023-02-14T10:54:13.703Z,103565.28
2023-02-14T10:57:19.255Z,103566.06
2023-02-14T11:00:14.281Z,103569.03
2023-02-14T11:02:49.932Z,103568.03
2023-02-14T11:05:41.090Z,103561.91
2023-02-14T11:08:20.125Z,103555.13
2023-02-14T11:10:50.630Z,103555.69
2023-02-14T11:13:36.078Z,103550.94
2023-02-14T11:20:12.997Z,103550.19
2023-02-14T11:22:39.834Z,103543.66
2023-02-14T11:25:30.689Z,103541.09
2023-02-14T11:28:12.480Z,103536.41
2023-02-14T11:30:47.805Z,103529.72
2023-02-14T11:33:33.493Z,103531.03
2023-02-14T11:36:03.244Z,103532.88
2023-02-14T11:38:36.186Z,103525.44
2023-02-14T11:41:04.959Z,103527.03
2023-02-14T11:43:45.860Z,103524.88
2023-02-14T11:46:36.144Z,103513.44
2023-02-14T11:49:09.464Z,103515.22
2023-02-14T11:51:42.174Z,103511.66
2023-02-14T11:54:27.719Z,103507.78
2023-02-14T11:57:06.023Z,103505.59
2023-02-14T11:59:43.626Z,103496.69
2023-02-14T12:02:29.439Z,103500.91
2023-02-14T12:07:45.822Z,103491.88
2023-02-14T12:10:19.051Z,103485.47
2023-02-14T12:12:48.586Z,103485.16
2023-02-14T12:15:25.230Z,103487.03
2023-02-14T12:17:58.884Z,103478.56
2023-02-14T12:20:49.379Z,103477.69
2023-02-14T12:23:26.413Z,103478.19
2023-02-14T12:25:59.113Z,103468.84
2023-02-14T12:28:38.661Z,103465.78
2023-02-14T12:31:13.580Z,103467.63
2023-02-14T12:33:41.202Z,103461.09
2023-02-14T12:36:30.931Z,103460.88
2023-02-14T12:39:16.603Z,103453.16
2023-02-14T12:42:00.340Z,103449.16
2023-02-14T12:44:59.586Z,103445.34
2023-02-14T12:47:54.983Z,103440.00
2023-02-14T12:50:37.992Z,103438.94
2023-02-14T12:53:25.984Z,103433.78
2023-02-14T12:56:11.501Z,103425.19
2023-02-14T12:58:51.014Z,103422.44
2023-02-14T13:01:39.221Z,103422.34
2023-02-14T13:04:34.184Z,103417.81
2023-02-14T13:07:13.807Z,103413.09
2023-02-14T13:09:54.634Z,103399.44
2023-02-14T13:12:44.488Z,103399.22
2023-02-14T13:15:27.587Z,103408.81
2023-02-14T13:18:12.522Z,103397.19
2023-02-14T13:20:58.350Z,103385.59
2023-02-14T13:23:36.143Z,103376.75
2023-02-14T13:26:29.617Z,103376.75
2023-02-14T13:29:02.310Z,103367.53
2023-02-14T13:46:02.821Z,103365.94
2023-02-14T13:48:30.845Z,103363.81
2023-02-14T13:50:59.986Z,103359.13
2023-02-14T13:53:34.712Z,103356.22
2023-02-14T13:56:24.782Z,103348.31
2023-02-14T13:59:06.055Z,103342.81
2023-02-14T14:01:51.610Z,103356.72
2023-02-14T14:04:31.935Z,103346.88
2023-02-14T14:07:04.652Z,103347.41
2023-02-14T14:09:43.873Z,103341.03
2023-02-14T14:12:28.824Z,103346.53
2023-02-14T14:15:08.235Z,103349.16
2023-02-14T14:17:39.406Z,103346.16
2023-02-14T14:20:21.725Z,103342.44
2023-02-14T14:22:50.678Z,103335.38
2023-02-14T14:25:37.930Z,103343.13
2023-02-14T14:28:12.096Z,103332.72
2023-02-14T14:30:44.666Z,103331.06
2023-02-14T14:33:31.975Z,103330.69
2023-02-14T14:36:21.683Z,103339.88
2023-02-14T14:38:51.241Z,103324.88
2023-02-14T14:41:19.248Z,103331.72
2023-02-14T14:43:47.844Z,103331.72
2023-02-14T14:46:16.085Z,103329.22
2023-02-14T14:48:51.590Z,103327.16
2023-02-14T14:51:31.495Z,103327.28
2023-02-14T14:54:03.514Z,103324.63
2023-02-14T14:56:35.670Z,103332.53
2023-02-14T14:59:35.766Z,103323.13
2023-02-14T15:02:04.215Z,103322.25
2023-02-14T15:04:32.693Z,103323.22
2023-02-14T15:07:27.864Z,103318.09
2023-02-14T15:09:54.665Z,103326.25
2023-02-14T15:12:43.334Z,103328.16
2023-02-14T15:15:16.930Z,103321.59
2023-02-14T15:17:45.996Z,103317.31
2023-02-14T15:20:24.204Z,103319.47
2023-02-14T15:22:55.204Z,103315.25
2023-02-14T15:25:22.526Z,103313.75
2023-02-14T15:27:49.743Z,103321.28
2023-02-14T15:30:21.930Z,103318.03
2023-02-14T15:32:50.642Z,103323.69
2023-02-14T15:35:24.255Z,103324.56
2023-02-14T15:37:52.151Z,103325.75
2023-02-14T15:40:24.625Z,103318.81
2023-02-14T15:42:59.121Z,103316.44
2023-02-14T15:45:26.261Z,103315.84
2023-02-14T15:47:55.850Z,103322.41
2023-02-14T15:50:27.924Z,103315.72
2023-02-14T15:53:00.352Z,103303.19
2023-02-14T15:55:28.055Z,103307.25
2023-02-14T15:58:02.995Z,103297.19
2023-02-14T16:00:31.802Z,103304.03
2023-02-14T16:03:23.898Z,103293.38
2023-02-14T16:05:51.444Z,103308.09
2023-02-14T16:08:37.781Z,103302.84
2023-02-14T16:11:14.668Z,103303.78
2023-02-14T16:13:47.799Z,103303.63
2023-02-14T16:16:15.707Z,103299.19
2023-02-14T16:18:43.804Z,103294.66
2023-02-14T16:21:16.407Z,103298.69
2023-02-14T16:23:45.940Z,103297.22
2023-02-14T16:26:13.296Z,103298.53
2023-02-14T16:28:43.034Z,103299.09
2023-02-14T16:31:15.532Z,103297.13
2023-02-14T16:33:44.917Z,103290.19
2023-02-14T16:36:26.453Z,103287.34
2023-02-14T16:38:53.580Z,103291.97
2023-02-14T16:41:26.438Z,103291.63
2023-02-14T16:43:55.505Z,103291.22
2023-02-14T16:46:26.226Z,103287.34
2023-02-14T16:48:53.176Z,103286.94
2023-02-14T16:51:22.571Z,103288.34
2023-02-14T16:53:50.515Z,103283.75
2023-02-14T16:56:26.091Z,103294.56
2023-02-14T16:58:52.741Z,103293.22
2023-02-14T17:01:19.438Z,103296.28
2023-02-14T17:03:46.292Z,103294.19
2023-02-14T17:06:17.097Z,103289.28
2023-02-14T17:08:44.021Z,103287.19
2023-02-14T17:11:11.367Z,103296.31
2023-02-14T17:13:41.291Z,103289.81
2023-02-14T17:16:11.948Z,103314.47
2023-02-14T17:18:41.646Z,103309.63
2023-02-14T17:21:11.997Z,103308.38
2023-02-14T17:23:38.651Z,103318.63
2023-02-14T17:26:06.155Z,103320.84
2023-02-14T17:28:33.353Z,103320.22
2023-02-14T17:31:01.151Z,103317.78
2023-02-14T17:33:30.467Z,103325.97
2023-02-14T17:36:06.814Z,103322.91
2023-02-14T17:38:35.922Z,103320.69
2023-02-14T17:41:22.780Z,103315.66
2023-02-14T17:43:51.342Z,103324.75
2023-02-14T17:46:20.885Z,103318.97
2023-02-14T17:48:49.206Z,103316.56
2023-02-14T17:51:18.119Z,103320.31
2023-02-14T17:53:44.828Z,103317.06
2023-02-14T17:56:14.733Z,103321.66
2023-02-14T17:58:41.714Z,103319.34
2023-02-14T18:01:10.896Z,103311.91
2023-02-14T18:03:39.108Z,103317.41
2023-02-14T18:06:06.934Z,103314.16
2023-02-14T18:08:39.207Z,103308.81
2023-02-14T18:11:08.196Z,103315.84
2023-02-14T18:13:35.400Z,103316.34
2023-02-14T18:16:04.719Z,103313.84
2023-02-14T18:18:32.779Z,103305.75
2023-02-14T18:21:03.302Z,103305.94
2023-02-14T18:23:32.926Z,103313.78
2023-02-14T18:26:04.656Z,103304.31
2023-02-14T18:28:32.771Z,103304.69
2023-02-14T18:31:09.357Z,103304.91
2023-02-14T18:33:37.683Z,103293.03
2023-02-14T18:36:09.094Z,103290.78
2023-02-14T18:38:36.268Z,103283.06
2023-02-14T18:41:05.635Z,103296.31
2023-02-14T18:43:32.659Z,103281.38
2023-02-14T18:46:07.916Z,103283.34
2023-02-14T18:48:37.364Z,103287.00
2023-02-14T18:51:14.326Z,103283.81
2023-02-14T18:53:44.390Z,103281.50
2023-02-14T18:56:15.766Z,103285.97
2023-02-14T18:58:49.059Z,103278.31
2023-02-14T19:01:18.048Z,103276.25
2023-02-14T19:03:45.730Z,103284.63
2023-02-14T19:06:13.507Z,103276.97
2023-02-14T19:08:41.839Z,103266.97
2023-02-14T19:11:20.291Z,103267.53
2023-02-14T19:13:58.710Z,103265.00
2023-02-14T19:16:28.578Z,103267.03
2023-02-14T19:18:55.963Z,103266.53
2023-02-14T19:21:25.901Z,103261.31
2023-02-14T19:23:57.269Z,103264.69
2023-02-14T19:26:31.782Z,103255.00
2023-02-14T19:29:04.854Z,103257.72
2023-02-14T19:31:36.378Z,103260.50
2023-02-14T19:34:05.177Z,103252.75
2023-02-14T19:36:33.341Z,103248.44
2023-02-14T19:39:00.181Z,103250.50
2023-02-14T19:41:32.248Z,103245.63
2023-02-14T19:43:59.909Z,103253.56
2023-02-14T19:46:28.410Z,103247.66
2023-02-14T19:49:06.289Z,103250.28
2023-02-14T19:51:36.329Z,103245.16
2023-02-14T19:54:12.838Z,103246.16
2023-02-14T19:56:46.525Z,103250.78
2023-02-14T20:02:04.516Z,103247.34
2023-02-14T20:04:32.234Z,103245.84
2023-02-14T20:06:59.280Z,103242.72
2023-02-14T20:09:26.950Z,103242.84
2023-02-14T20:11:56.357Z,103249.81
2023-02-14T20:14:38.421Z,103242.16
2023-02-14T20:17:15.149Z,103236.28
2023-02-14T20:19:42.626Z,103240.00
2023-02-14T20:22:09.401Z,103247.16
2023-02-14T20:24:36.270Z,103234.28
2023-02-14T20:27:03.918Z,103236.22
2023-02-14T20:29:31.330Z,103228.66
2023-02-14T20:32:00.262Z,103236.66
2023-02-14T20:34:29.384Z,103230.91
2023-02-14T20:36:57.222Z,103241.63
2023-02-14T20:39:29.888Z,103236.50
2023-02-14T20:41:56.875Z,103233.06
2023-02-14T20:44:25.664Z,103226.97
2023-02-14T20:46:53.399Z,103230.59
2023-02-14T20:49:23.685Z,103219.41
2023-02-14T20:51:51.398Z,103218.75
2023-02-14T20:54:24.373Z,103218.16
2023-02-14T20:56:51.651Z,103214.03
2023-02-14T20:59:29.224Z,103216.88
2023-02-14T21:01:59.940Z,103209.94
2023-02-14T21:04:27.469Z,103203.19
2023-02-14T21:06:54.764Z,103205.09
2023-02-14T21:09:22.142Z,103209.72
2023-02-14T21:11:50.536Z,103202.25
2023-02-14T21:14:18.302Z,103204.16
2023-02-14T21:16:48.530Z,103203.44
2023-02-14T21:19:15.439Z,103189.78
2023-02-14T21:21:42.912Z,103195.09
2023-02-14T21:24:16.093Z,103192.75
2023-02-14T21:26:44.809Z,103197.34
2023-02-14T21:29:11.574Z,103200.19
2023-02-14T21:31:38.732Z,103195.91
2023-02-14T21:34:06.026Z,103190.81
2023-02-14T21:36:38.691Z,103192.78
2023-02-14T21:39:10.917Z,103189.59
2023-02-14T21:41:37.992Z,103177.72
2023-02-14T21:44:05.933Z,103177.38
2023-02-14T21:46:37.200Z,103174.50
2023-02-14T21:49:23.955Z,103173.63
2023-02-14T21:51:50.858Z,103171.03
2023-02-14T21:54:18.076Z,103173.63
2023-02-14T21:56:45.303Z,103173.88
2023-02-14T22:01:53.525Z,103168.06
2023-02-14T22:04:20.279Z,103165.03
2023-02-14T22:06:47.279Z,103169.84
2023-02-14T22:09:15.095Z,103165.56
2023-02-14T22:11:41.908Z,103177.72
2023-02-14T22:14:09.076Z,103180.53
2023-02-14T22:16:38.892Z,103178.03
2023-02-14T22:19:07.075Z,103173.91
2023-02-14T22:21:34.522Z,103165.81
2023-02-14T22:24:02.401Z,103174.50
2023-02-14T22:26:31.629Z,103175.28
2023-02-14T22:29:00.379Z,103175.72
2023-02-14T22:31:30.264Z,103174.41
2023-02-14T22:33:57.209Z,103173.88
2023-02-14T22:36:24.502Z,103169.34
2023-02-14T22:38:51.526Z,103170.47
2023-02-14T22:41:22.082Z,103159.66
2023-02-14T22:43:49.556Z,103159.84
2023-02-14T22:46:20.255Z,103162.91
2023-02-14T22:48:48.898Z,103162.06
2023-02-14T22:51:24.076Z,103152.66
2023-02-14T22:53:53.206Z,103154.13
2023-02-14T22:56:29.356Z,103152.69
2023-02-14T22:58:58.204Z,103148.19
2023-02-14T23:01:25.336Z,103153.16
2023-02-14T23:03:57.578Z,103146.22
2023-02-14T23:06:26.070Z,103143.69
2023-02-14T23:08:55.617Z,103153.94
2023-02-14T23:11:25.673Z,103145.28
2023-02-14T23:14:12.691Z,103149.50
2023-02-14T23:16:58.644Z,103157.38
2023-02-14T23:19:49.676Z,103155.75
2023-02-14T23:22:22.325Z,103166.28
2023-02-14T23:24:51.348Z,103158.34
2023-02-14T23:27:21.919Z,103161.75
2023-02-14T23:29:49.554Z,103171.22
2023-02-14T23:32:17.156Z,103166.00
2023-02-14T23:34:45.818Z,103165.19
2023-02-14T23:37:14.265Z,103165.09
2023-02-14T23:39:41.719Z,103162.56
2023-02-14T23:42:13.941Z,103156.53
2023-02-14T23:44:42.261Z,103159.97
2023-02-14T23:47:11.132Z,103154.00
2023-02-14T23:49:39.745Z,103156.69
2023-02-14T23:52:15.541Z,103155.28
2023-02-14T23:54:42.475Z,103157.22
2023-02-14T23:57:09.546Z,103155.56
2023-02-14T23:59:36.492Z,103153.06
